createdAt,value
2023-05-15T00:00:10.737Z,2.42
2023-05-15T00:03:06.065Z,2.25
2023-05-15T00:05:57.066Z,2.22
2023-05-15T00:08:47.223Z,2.78
2023-05-15T00:11:37.200Z,2.13
2023-05-15T00:14:26.963Z,2.35
2023-05-15T00:17:16.771Z,2.30
2023-05-15T00:20:07.513Z,2.22
2023-05-15T00:22:58.245Z,2.58
2023-05-15T00:25:48.188Z,2.00
2023-05-15T00:28:38.506Z,2.30
2023-05-15T00:31:28.887Z,2.33
2023-05-15T00:34:19.435Z,2.22
2023-05-15T00:37:09.406Z,2.20
2023-05-15T00:39:59.929Z,2.13
2023-05-15T00:42:51.035Z,2.33
2023-05-15T00:45:42.338Z,2.00
2023-05-15T00:48:33.346Z,2.10
2023-05-15T00:51:24.032Z,1.98
2023-05-15T00:54:14.195Z,2.55
2023-05-15T00:57:06.471Z,1.92
2023-05-15T00:59:57.286Z,2.20
2023-05-15T01:02:47.778Z,2.10
2023-05-15T01:05:38.212Z,2.60
2023-05-15T01:08:43.985Z,2.40
2023-05-15T01:11:36.363Z,2.20
2023-05-15T01:14:27.633Z,1.60
2023-05-15T01:17:18.048Z,2.25
2023-05-15T01:20:10.532Z,2.20
2023-05-15T01:23:20.385Z,2.10
2023-05-15T01:26:45.492Z,2.63
2023-05-15T01:29:57.550Z,2.22
2023-05-15T01:33:06.055Z,2.00
2023-05-15T01:36:07.841Z,2.30
2023-05-15T01:39:02.664Z,2.08
2023-05-15T01:42:03.045Z,2.10
2023-05-15T01:44:55.535Z,2.28
2023-05-15T01:47:47.198Z,2.00
2023-05-15T01:50:39.887Z,2.28
2023-05-15T01:53:34.958Z,1.95
2023-05-15T01:56:27.115Z,2.53
2023-05-15T01:59:19.837Z,1.92
2023-05-15T02:02:11.122Z,2.08
2023-05-15T02:05:02.513Z,1.90
2023-05-15T02:07:53.476Z,2.10
2023-05-15T02:10:44.583Z,1.90
2023-05-15T02:13:35.545Z,2.20
2023-05-15T02:16:25.664Z,2.33
2023-05-15T02:19:15.962Z,2.15
2023-05-15T02:22:06.166Z,2.00
2023-05-15T02:24:57.182Z,1.85
2023-05-15T02:27:56.389Z,1.95
2023-05-15T02:30:54.797Z,2.35
2023-05-15T02:34:18.164Z,2.17
2023-05-15T02:37:13.392Z,2.00
2023-05-15T02:40:11.034Z,1.80
2023-05-15T02:43:04.033Z,2.05
2023-05-15T02:45:56.314Z,1.98
2023-05-15T02:48:47.736Z,1.90
2023-05-15T02:51:37.768Z,2.08
2023-05-15T02:54:27.612Z,2.05
2023-05-15T02:57:17.605Z,2.17
2023-05-15T03:00:11.710Z,1.55
2023-05-15T03:03:01.871Z,2.00
2023-05-15T03:05:52.700Z,2.05
2023-05-15T03:08:42.893Z,2.03
2023-05-15T03:11:32.817Z,1.90
2023-05-15T03:14:23.170Z,2.00
2023-05-15T03:17:13.071Z,2.05
2023-05-15T03:20:04.734Z,1.88
2023-05-15T03:22:54.898Z,1.95
2023-05-15T03:25:44.741Z,1.98
2023-05-15T03:28:35.297Z,2.00
2023-05-15T03:31:25.627Z,1.52
2023-05-15T03:34:15.766Z,1.75
2023-05-15T03:37:05.728Z,2.20
2023-05-15T03:39:55.701Z,1.73
2023-05-15T03:42:45.953Z,1.77
2023-05-15T03:45:36.287Z,2.00
2023-05-15T03:48:26.452Z,1.98
2023-05-15T03:51:16.470Z,2.00
2023-05-15T03:54:06.903Z,1.98
2023-05-15T03:56:57.011Z,1.77
2023-05-15T03:59:47.621Z,1.80
2023-05-15T04:02:38.065Z,2.00
2023-05-15T04:05:28.603Z,1.77
2023-05-15T04:08:18.986Z,2.00
2023-05-15T04:11:10.638Z,1.83
2023-05-15T04:14:01.036Z,1.88
2023-05-15T04:16:51.108Z,1.83
2023-05-15T04:19:43.045Z,1.77
2023-05-15T04:22:33.290Z,1.90
2023-05-15T04:25:24.384Z,1.75
2023-05-15T04:28:16.042Z,1.95
2023-05-15T04:31:06.038Z,1.77
2023-05-15T04:33:56.007Z,1.90
2023-05-15T04:36:46.016Z,1.65
2023-05-15T04:39:35.834Z,2.22
2023-05-15T04:42:26.629Z,1.80
2023-05-15T04:45:17.252Z,1.88
2023-05-15T04:48:08.033Z,2.10
2023-05-15T04:50:58.174Z,1.65
2023-05-15T04:53:48.046Z,2.00
2023-05-15T04:56:37.911Z,1.90
2023-05-15T04:59:28.753Z,1.95
2023-05-15T05:02:23.335Z,1.92
2023-05-15T05:05:14.758Z,2.00
2023-05-15T05:08:05.192Z,2.00
2023-05-15T05:10:57.329Z,2.40
2023-05-15T05:13:47.445Z,2.25
2023-05-15T05:16:37.984Z,2.65
2023-05-15T05:19:30.866Z,2.15
2023-05-15T05:22:21.183Z,2.22
2023-05-15T05:25:11.254Z,2.10
2023-05-15T05:28:01.604Z,2.28
2023-05-15T05:30:52.108Z,1.95
2023-05-15T05:33:42.364Z,2.80
2023-05-15T05:36:32.876Z,2.60
2023-05-15T05:39:23.230Z,2.08
2023-05-15T05:42:13.335Z,2.10
2023-05-15T05:45:03.702Z,2.15
2023-05-15T05:47:57.366Z,2.38
2023-05-15T05:50:47.492Z,2.50
2023-05-15T05:53:39.467Z,2.20
2023-05-15T05:56:29.879Z,2.28
2023-05-15T05:59:20.554Z,2.35
2023-05-15T06:02:11.450Z,2.28
2023-05-15T06:05:01.800Z,2.40
2023-05-15T06:07:52.645Z,2.70
2023-05-15T06:10:43.006Z,2.17
2023-05-15T06:13:32.892Z,2.35
2023-05-15T06:16:23.170Z,2.08
2023-05-15T06:19:13.384Z,2.30
2023-05-15T06:22:03.850Z,2.50
2023-05-15T06:24:54.036Z,2.40
2023-05-15T06:27:44.409Z,2.75
2023-05-15T06:30:34.628Z,2.60
2023-05-15T06:33:25.105Z,2.75
2023-05-15T06:36:16.257Z,2.53
2023-05-15T06:39:06.574Z,2.80
2023-05-15T06:42:01.203Z,2.40
2023-05-15T06:44:53.201Z,2.58
2023-05-15T06:47:43.201Z,3.20
2023-05-15T06:50:33.706Z,3.17
2023-05-15T06:53:24.002Z,2.95
2023-05-15T06:56:14.099Z,2.65
2023-05-15T06:59:04.188Z,3.65
2023-05-15T07:01:54.527Z,2.63
2023-05-15T07:04:44.707Z,3.13
2023-05-15T07:07:34.913Z,2.90
2023-05-15T07:10:25.136Z,2.80
2023-05-15T07:13:20.438Z,2.47
2023-05-15T07:16:11.245Z,3.00
2023-05-15T07:19:01.383Z,3.05
2023-05-15T07:21:51.341Z,2.83
2023-05-15T07:24:41.706Z,2.50
2023-05-15T07:27:31.923Z,2.50
2023-05-15T07:30:23.149Z,2.50
2023-05-15T07:33:13.575Z,2.67
2023-05-15T07:36:04.013Z,2.55
2023-05-15T07:38:54.027Z,3.33
2023-05-15T07:41:43.906Z,2.70
2023-05-15T07:44:33.863Z,2.60
2023-05-15T07:47:23.822Z,3.53
2023-05-15T07:50:14.886Z,2.17
2023-05-15T07:53:05.221Z,2.92
2023-05-15T07:55:55.232Z,2.67
2023-05-15T07:58:45.371Z,2.80
2023-05-15T08:01:35.798Z,2.13
2023-05-15T08:04:25.770Z,2.75
2023-05-15T08:07:15.776Z,2.70
2023-05-15T08:10:06.893Z,2.20
2023-05-15T08:12:57.185Z,2.40
2023-05-15T08:15:47.193Z,2.72
2023-05-15T08:18:37.665Z,2.30
2023-05-15T08:21:27.911Z,2.40
2023-05-15T08:24:18.068Z,2.25
2023-05-15T08:27:09.522Z,2.13
2023-05-15T08:29:59.542Z,2.05
2023-05-15T08:32:49.839Z,2.42
2023-05-15T08:35:40.660Z,2.17
2023-05-15T08:38:31.535Z,2.17
2023-05-15T08:41:39.854Z,2.17
2023-05-15T08:44:30.843Z,2.20
2023-05-15T08:47:20.964Z,2.58
2023-05-15T08:50:16.741Z,2.00
2023-05-15T08:53:08.136Z,2.17
2023-05-15T08:55:58.395Z,2.70
2023-05-15T08:58:48.385Z,2.10
2023-05-15T09:01:38.877Z,2.05
2023-05-15T09:04:29.232Z,2.13
2023-05-15T09:07:20.553Z,2.30
2023-05-15T09:10:11.174Z,1.95
2023-05-15T09:13:02.340Z,2.03
2023-05-15T09:15:52.660Z,2.03
2023-05-15T09:18:43.889Z,2.45
2023-05-15T09:21:34.205Z,2.03
2023-05-15T09:24:28.285Z,2.20
2023-05-15T09:27:19.776Z,2.22
2023-05-15T09:30:10.222Z,2.40
2023-05-15T09:33:03.422Z,1.98
2023-05-15T09:35:53.635Z,2.13
2023-05-15T09:38:47.405Z,1.88
2023-05-15T09:44:31.389Z,2.40
2023-05-15T09:47:22.248Z,2.20
2023-05-15T09:50:12.747Z,2.10
2023-05-15T09:53:03.946Z,2.00
2023-05-15T09:55:54.763Z,2.17
2023-05-15T09:58:58.878Z,2.10
2023-05-15T10:01:51.604Z,1.85
2023-05-15T10:04:41.814Z,2.28
2023-05-15T10:07:33.368Z,1.90
2023-05-15T10:10:24.548Z,1.73
2023-05-15T10:13:14.805Z,2.00
2023-05-15T10:16:05.953Z,2.10
2023-05-15T10:18:57.773Z,1.90
2023-05-15T10:21:48.550Z,2.05
2023-05-15T10:24:43.947Z,2.25
2023-05-15T10:27:35.934Z,5.18
2023-05-15T10:30:26.911Z,21.60
2023-05-15T10:33:19.433Z,32.00
2023-05-15T10:36:10.829Z,44.45
2023-05-15T10:39:03.664Z,40.20
2023-05-15T10:41:55.438Z,32.40
2023-05-15T10:44:45.439Z,31.85
2023-05-15T10:47:37.217Z,30.67
2023-05-15T10:50:27.918Z,28.27
2023-05-15T10:53:19.802Z,27.85
2023-05-15T10:56:15.125Z,26.50
2023-05-15T10:59:10.974Z,24.58
2023-05-15T11:02:25.692Z,24.75
2023-05-15T11:05:15.781Z,25.70
2023-05-15T11:08:15.499Z,25.10
2023-05-15T11:11:05.836Z,21.95
2023-05-15T11:14:05.219Z,16.42
2023-05-15T11:16:55.570Z,3.05
2023-05-15T11:19:48.862Z,3.50
2023-05-15T11:22:40.093Z,3.25
2023-05-15T11:25:32.182Z,3.67
2023-05-15T11:28:24.558Z,3.15
2023-05-15T11:31:15.525Z,4.20
2023-05-15T11:34:06.038Z,4.13
2023-05-15T11:36:59.447Z,3.72
2023-05-15T11:39:52.622Z,3.63
2023-05-15T11:43:00.925Z,3.90
2023-05-15T11:45:57.857Z,4.13
2023-05-15T11:48:48.299Z,4.05
2023-05-15T11:51:43.090Z,3.65
2023-05-15T11:54:33.619Z,3.65
2023-05-15T11:57:23.976Z,3.65
2023-05-15T12:00:14.630Z,3.25
2023-05-15T12:03:04.840Z,2.88
2023-05-15T12:05:59.610Z,3.17
2023-05-15T12:08:53.606Z,3.13
2023-05-15T12:14:44.198Z,3.20
2023-05-15T12:17:37.015Z,3.65
2023-05-15T12:20:27.305Z,3.53
2023-05-15T12:23:20.780Z,3.15
2023-05-15T12:26:10.900Z,2.80
2023-05-15T12:29:01.563Z,2.40
2023-05-15T12:31:53.935Z,3.25
2023-05-15T12:34:44.419Z,2.85
2023-05-15T12:37:38.519Z,2.90
2023-05-15T12:40:28.424Z,3.47
2023-05-15T12:43:18.696Z,3.28
2023-05-15T12:46:09.721Z,3.88
2023-05-15T12:49:00.502Z,3.53
2023-05-15T12:51:50.745Z,3.50
2023-05-15T12:54:41.908Z,4.00
2023-05-15T12:57:32.672Z,3.90
2023-05-15T13:00:23.637Z,3.78
2023-05-15T13:03:14.940Z,4.20
2023-05-15T13:06:07.129Z,4.38
2023-05-15T13:08:58.799Z,3.75
2023-05-15T13:11:49.512Z,4.30
2023-05-15T13:14:42.049Z,4.13
2023-05-15T13:17:34.936Z,3.83
2023-05-15T13:20:25.985Z,3.83
2023-05-15T13:23:17.897Z,3.53
2023-05-15T13:26:07.789Z,3.28
2023-05-15T13:28:57.747Z,3.65
2023-05-15T13:31:47.813Z,3.50
2023-05-15T13:34:38.015Z,3.22
2023-05-15T13:37:28.344Z,3.42
2023-05-15T13:40:18.455Z,3.38
2023-05-15T13:43:08.563Z,3.10
2023-05-15T13:45:58.999Z,2.63
2023-05-15T13:48:48.953Z,2.50
2023-05-15T13:51:38.918Z,2.67
2023-05-15T13:54:29.009Z,2.47
2023-05-15T13:57:19.250Z,2.78
2023-05-15T14:00:12.942Z,2.67
2023-05-15T14:03:04.075Z,2.30
2023-05-15T14:05:54.618Z,2.63
2023-05-15T14:08:44.534Z,2.80
2023-05-15T14:11:35.853Z,3.42
2023-05-15T14:14:25.691Z,3.35
2023-05-15T14:17:16.792Z,3.22
2023-05-15T14:20:07.632Z,3.20
2023-05-15T14:22:57.951Z,3.70
2023-05-15T14:25:48.011Z,3.50
2023-05-15T14:28:38.050Z,3.58
2023-05-15T14:31:28.104Z,3.53
2023-05-15T14:34:19.274Z,3.78
2023-05-15T14:37:09.599Z,3.50
2023-05-15T14:40:00.034Z,4.63
2023-05-15T14:42:50.007Z,4.35
2023-05-15T14:45:40.129Z,4.75
2023-05-15T14:48:30.611Z,5.90
2023-05-15T14:51:20.715Z,7.63
2023-05-15T14:54:11.255Z,6.63
2023-05-15T14:57:01.540Z,9.07
2023-05-15T14:59:52.145Z,8.70
2023-05-15T15:02:43.532Z,8.80
2023-05-15T15:05:33.945Z,11.10
2023-05-15T15:08:24.608Z,11.48
2023-05-15T15:11:17.996Z,10.10
2023-05-15T15:14:08.574Z,11.38
2023-05-15T15:16:59.008Z,11.65
2023-05-15T15:19:49.464Z,9.52
2023-05-15T15:22:42.315Z,11.20
2023-05-15T15:25:33.375Z,12.43
2023-05-15T15:28:23.500Z,12.13
2023-05-15T15:31:13.567Z,11.60
2023-05-15T15:34:05.787Z,11.60
2023-05-15T15:36:56.642Z,11.57
2023-05-15T15:39:46.909Z,11.35
2023-05-15T15:42:37.764Z,11.48
2023-05-15T15:45:28.322Z,13.55
2023-05-15T15:48:18.938Z,12.35
2023-05-15T15:51:09.092Z,13.43
2023-05-15T15:53:59.453Z,13.07
2023-05-15T15:56:49.326Z,12.75
2023-05-15T15:59:40.038Z,13.48
2023-05-15T16:02:30.360Z,12.68
